• Join FlightAware (Why Join?)
  • Login
  • US Flag 
12:29AM EST


 

Airport Tracker/Info


-or-


 

Live Flight TrackerFlight Track Log ✈ JA-8256 ✈ 22-05-2012 ✈ ROAH / OKA - RJFF / FUK

Flight Track Log - Related Links

Times and Time Zones

All times are in EDT time to prevent confusion due to time zone crossing. See the JA-8256 flight status page for this flight to view local times or setup timezone preferences in your user account.

Time Position Orientation Groundspeed Altitude Reporting Facility
EDT Latitude Longitude Course Direction KTS MPH feet Rate Location/Type
03:35AM 26.2486 127.6644 18° North  Level Estimated
03:36AM 26.3475 127.6993 18° North  Level Estimated
03:37AM 26.4463 127.7342 18° North  Level Estimated
03:38AM 26.5452 127.7692 18° North  Level Estimated
03:39AM 26.6441 127.8043 18° North  Level Estimated
03:40AM 26.7429 127.8394 18° North  Level Estimated
03:41AM 26.8418 127.8745 18° North  Level Estimated
03:42AM 26.9406 127.9098 18° North  Level Estimated
03:43AM 27.0394 127.9450 18° North  Level Estimated
03:44AM 27.1383 127.9804 18° North  Level Estimated
03:45AM 27.2371 128.0158 18° North  Level Estimated
03:46AM 27.3359 128.0513 18° North  Level Estimated
03:47AM 27.4347 128.0868 18° North  Level Estimated
03:48AM 27.5334 128.1224 18° North  Level Estimated
03:49AM 27.6322 128.1581 18° North  Level Estimated
03:50AM 27.7310 128.1938 18° North  Level Estimated
03:51AM 27.8297 128.2296 18° North  Level Estimated
03:52AM 27.9285 128.2655 18° North  Level Estimated
03:53AM 28.0272 128.3014 18° North  Level Estimated
03:54AM 28.1259 128.3374 18° North  Level Estimated
03:55AM 28.2247 128.3735 18° North  Level Estimated
03:56AM 28.3234 128.4096 18° North  Level Estimated
03:57AM 28.4221 128.4458 18° North  Level Estimated
03:58AM 28.5208 128.4820 18° North  Level Estimated
03:59AM 28.6194 128.5184 18° North  Level Estimated
04:00AM 28.7181 128.5547 18° North  Level Estimated
04:01AM 28.8168 128.5912 18° North  Level Estimated
04:02AM 28.9154 128.6277 18° North  Level Estimated
04:03AM 29.0141 128.6644 18° North  Level Estimated
04:04AM 29.1127 128.7010 18° North  Level Estimated
04:05AM 29.2113 128.7378 18° North  Level Estimated
04:06AM 29.3099 128.7746 18° North  Level Estimated
04:07AM 29.4085 128.8115 18° North  Level Estimated
04:08AM 29.5071 128.8484 18° North  Level Estimated
04:09AM 29.6057 128.8855 18° North  Level Estimated
04:10AM 29.7043 128.9226 18° North  Level Estimated
04:11AM 29.8028 128.9597 18° North  Level Estimated
04:12AM 29.9014 128.9970 18° North  Level Estimated
04:13AM 29.9999 129.0343 18° North  Level Estimated
04:14AM 30.0984 129.0717 18° North  Level Estimated
04:15AM 30.1970 129.1092 18° North  Level Estimated
04:16AM 30.2955 129.1467 18° North  Level Estimated
04:17AM 30.3940 129.1844 18° North  Level Estimated
04:18AM 30.4925 129.2221 18° North  Level Estimated
04:19AM 30.5909 129.2599 18° North  Level Estimated
04:20AM 30.6894 129.2977 18° North  Level Estimated
04:21AM 30.7878 129.3356 18° North  Level Estimated
04:22AM 30.8863 129.3737 18° North  Level Estimated
04:23AM 30.9847 129.4117 18° North  Level Estimated
04:24AM 31.0831 129.4499 18° North  Level Estimated
04:25AM 31.1815 129.4881 18° North  Level Estimated
04:26AM 31.2799 129.5265 18° North  Level Estimated
04:27AM 31.3783 129.5649 18° North  Level Estimated
04:28AM 31.4767 129.6034 18° North  Level Estimated
04:29AM 31.5751 129.6419 18° North  Level Estimated
04:30AM 31.6734 129.6806 19° North  Level Estimated
04:31AM 31.7717 129.7193 19° North  Level Estimated
04:32AM 31.8701 129.7581 19° North  Level Estimated
04:33AM 31.9684 129.7970 19° North  Level Estimated
04:34AM 32.0667 129.8360 19° North  Level Estimated
04:35AM 32.1650 129.8750 19° North  Level Estimated
04:36AM 32.2633 129.9142 19° North  Level Estimated
04:37AM 32.3615 129.9534 19° North  Level Estimated
04:38AM 32.4598 129.9927 19° North  Level Estimated
04:39AM 32.5580 130.0321 19° North  Level Estimated
04:40AM 32.6563 130.0716 19° North  Level Estimated
04:41AM 32.7545 130.1112 19° North  Level Estimated
04:42AM 32.8527 130.1508 19° North  Level Estimated
04:43AM 32.9509 130.1906 19° North  Level Estimated
04:44AM 33.0491 130.2304 19° North  Level Estimated
04:45AM 33.1472 130.2703 19° North  Level Estimated
04:46AM 33.2454 130.3103 19° North  Level Estimated
04:47AM 33.3435 130.3504 19° North  Level Estimated
04:48AM 33.4417 130.3906 19° North  Level Estimated
04:49AM 33.5398 130.4309 19° North  Level Estimated
04:50AM 33.6379 130.4713 199° South  Level Estimated
04:51AM 33.5398 130.4309 19° North  Level Estimated
04:52AM 33.6379 130.4713 199° South  Level Estimated
04:53AM 33.5398 130.4309 19° North  Level Estimated
04:54AM 33.6379 130.4713 199° South  Level Estimated
04:55AM 33.5398 130.4309 19° North  Level Estimated
04:56AM 33.6379 130.4713 199° South  Level Estimated
04:57AM 33.5398 130.4309 19° North  Level Estimated
04:58AM 33.6379 130.4713 199° South  Level Estimated
04:59AM 33.5398 130.4309 199° South  Level Estimated